createdAt,value
2022-09-09T00:00:29.459Z,99.99
2022-09-09T00:01:29.474Z,99.99
2022-09-09T00:02:29.532Z,99.99
2022-09-09T00:03:29.532Z,99.99
2022-09-09T00:04:29.426Z,99.99
2022-09-09T00:05:29.425Z,99.99
2022-09-09T00:06:29.420Z,99.99
2022-09-09T00:07:29.382Z,99.99
2022-09-09T00:08:29.395Z,99.99
2022-09-09T00:09:29.370Z,99.99
2022-09-09T00:10:29.356Z,99.99
2022-09-09T00:11:31.452Z,99.99
2022-09-09T00:12:29.335Z,99.99
2022-09-09T00:13:29.335Z,99.99
2022-09-09T00:14:29.303Z,99.99
2022-09-09T00:15:29.331Z,99.99
2022-09-09T00:16:29.315Z,99.99
2022-09-09T00:17:29.274Z,99.99
2022-09-09T00:18:29.359Z,99.99
2022-09-09T00:19:29.273Z,99.99
2022-09-09T00:20:29.257Z,99.99
2022-09-09T00:21:29.238Z,99.99
2022-09-09T00:22:29.221Z,99.99
2022-09-09T00:23:29.253Z,99.99
2022-09-09T00:24:29.207Z,99.99
2022-09-09T00:25:29.192Z,99.99
2022-09-09T00:26:29.169Z,99.99
2022-09-09T00:27:29.171Z,99.99
2022-09-09T00:28:29.239Z,99.99
2022-09-09T00:29:29.142Z,99.99
2022-09-09T00:30:29.151Z,99.99
2022-09-09T00:31:29.193Z,99.99
2022-09-09T00:32:29.124Z,99.99
2022-09-09T00:33:29.151Z,99.99
2022-09-09T00:34:29.081Z,99.99
2022-09-09T00:35:29.087Z,99.99
2022-09-09T00:36:29.057Z,99.99
2022-09-09T00:37:29.049Z,99.99
2022-09-09T00:38:29.121Z,99.99
2022-09-09T00:39:29.027Z,99.99
2022-09-09T00:40:29.012Z,99.99
2022-09-09T00:41:29.012Z,99.99
2022-09-09T00:42:29.002Z,99.99
2022-09-09T00:43:28.991Z,99.99
2022-09-09T00:44:28.986Z,99.99
2022-09-09T00:45:28.980Z,99.99
2022-09-09T00:46:28.960Z,99.99
2022-09-09T00:47:28.946Z,99.99
2022-09-09T00:48:34.906Z,99.99
2022-09-09T00:49:28.952Z,99.99
2022-09-09T00:50:28.904Z,99.99
2022-09-09T00:51:28.914Z,99.99
2022-09-09T00:52:28.883Z,99.99
2022-09-09T00:53:28.869Z,99.99
2022-09-09T00:54:28.883Z,99.99
2022-09-09T00:55:28.852Z,99.99
2022-09-09T00:56:28.858Z,99.99
2022-09-09T00:57:28.837Z,99.99
2022-09-09T00:58:28.919Z,99.99
2022-09-09T00:59:28.837Z,99.99
2022-09-09T01:00:28.799Z,99.99
2022-09-09T01:01:28.817Z,99.99
2022-09-09T01:02:28.852Z,99.99
2022-09-09T01:03:28.771Z,99.99
2022-09-09T01:04:28.769Z,99.99
2022-09-09T01:05:28.732Z,99.99
2022-09-09T01:06:28.735Z,99.99
2022-09-09T01:07:28.719Z,99.99
2022-09-09T01:08:28.759Z,99.99
2022-09-09T01:09:28.712Z,99.99
2022-09-09T01:10:28.681Z,99.99
2022-09-09T01:11:28.669Z,99.99
2022-09-09T01:12:28.688Z,99.99
2022-09-09T01:13:28.672Z,99.99
2022-09-09T01:14:28.680Z,99.99
2022-09-09T01:15:28.636Z,99.99
2022-09-09T01:16:28.699Z,99.99
2022-09-09T01:17:28.621Z,99.99
2022-09-09T01:18:28.583Z,99.99
2022-09-09T01:19:28.613Z,99.99
2022-09-09T01:20:28.575Z,99.99
2022-09-09T01:21:28.570Z,99.99
2022-09-09T01:22:28.569Z,99.99
2022-09-09T01:23:28.558Z,99.99
2022-09-09T01:24:28.546Z,99.99
2022-09-09T01:25:28.515Z,99.99
2022-09-09T01:26:28.533Z,99.99
2022-09-09T01:27:28.489Z,99.99
2022-09-09T01:28:28.487Z,99.99
2022-09-09T01:29:28.484Z,99.99
2022-09-09T01:30:28.584Z,99.99
2022-09-09T01:31:28.439Z,99.99
2022-09-09T01:32:28.449Z,99.99
2022-09-09T01:33:28.423Z,99.99
2022-09-09T01:34:28.430Z,99.99
2022-09-09T01:35:28.409Z,99.99
2022-09-09T01:36:28.409Z,99.99
2022-09-09T01:37:28.412Z,99.99
2022-09-09T01:38:28.479Z,99.99
2022-09-09T01:39:28.375Z,99.99
2022-09-09T01:40:28.342Z,99.99
2022-09-09T01:41:28.357Z,99.99
2022-09-09T01:42:28.362Z,99.99
2022-09-09T01:43:28.322Z,99.99
2022-09-09T01:44:28.317Z,99.99
2022-09-09T01:45:28.305Z,99.99
2022-09-09T01:46:28.378Z,99.99
2022-09-09T01:47:28.291Z,99.99
2022-09-09T01:48:28.256Z,99.99
2022-09-09T01:49:28.269Z,99.99
2022-09-09T01:50:28.234Z,99.99
2022-09-09T01:51:28.230Z,99.99
2022-09-09T01:52:28.214Z,99.99
2022-09-09T01:53:28.219Z,99.99
2022-09-09T01:54:28.219Z,99.99
2022-09-09T01:55:28.190Z,99.99
2022-09-09T01:56:28.187Z,99.99
2022-09-09T01:57:28.171Z,99.99
2022-09-09T01:58:28.165Z,99.99
2022-09-09T01:59:28.168Z,99.99
2022-09-09T02:00:28.122Z,99.99
2022-09-09T02:01:28.275Z,99.99
2022-09-09T02:02:28.206Z,99.99
2022-09-09T02:03:28.098Z,99.99
2022-09-09T02:04:28.137Z,99.99
2022-09-09T02:05:28.095Z,99.99
2022-09-09T02:06:28.070Z,99.99
2022-09-09T02:07:28.040Z,99.99
2022-09-09T02:08:28.032Z,99.99
2022-09-09T02:09:28.041Z,99.99
2022-09-09T02:10:28.013Z,99.99
2022-09-09T02:11:28.020Z,99.99
2022-09-09T02:12:28.013Z,99.99
2022-09-09T02:13:27.985Z,99.99
2022-09-09T02:14:27.999Z,99.99
2022-09-09T02:15:27.953Z,99.99
2022-09-09T02:16:27.988Z,99.99
2022-09-09T02:17:27.930Z,99.99
2022-09-09T02:18:27.921Z,99.99
2022-09-09T02:19:27.920Z,99.99
2022-09-09T02:20:29.734Z,99.99
2022-09-09T02:21:27.892Z,99.99
2022-09-09T02:22:27.869Z,99.99
2022-09-09T02:23:27.901Z,99.99
2022-09-09T02:24:27.873Z,99.99
2022-09-09T02:25:27.863Z,99.99
2022-09-09T02:26:27.838Z,99.99
2022-09-09T02:27:27.834Z,99.99
2022-09-09T02:28:27.802Z,99.99
2022-09-09T02:29:27.818Z,99.99
2022-09-09T02:30:27.829Z,99.99
2022-09-09T02:31:27.772Z,99.99
2022-09-09T02:32:27.775Z,99.99
2022-09-09T02:33:27.774Z,99.99
2022-09-09T02:34:27.757Z,99.99
2022-09-09T02:35:27.767Z,99.99
2022-09-09T02:36:27.719Z,99.99
2022-09-09T02:37:27.707Z,99.99
2022-09-09T02:38:27.691Z,99.99
2022-09-09T02:39:27.715Z,99.99
2022-09-09T02:40:27.680Z,99.99
2022-09-09T02:41:27.671Z,99.99
2022-09-09T02:42:27.662Z,99.99
2022-09-09T02:43:27.642Z,99.99
2022-09-09T02:44:27.644Z,99.99
2022-09-09T02:45:27.618Z,99.99
2022-09-09T02:46:27.616Z,99.99
2022-09-09T02:47:27.589Z,99.99
2022-09-09T02:48:27.579Z,99.99
2022-09-09T02:49:27.608Z,99.99
2022-09-09T02:50:27.612Z,99.99
2022-09-09T02:51:27.553Z,99.99
2022-09-09T02:52:27.552Z,99.99
2022-09-09T02:53:27.526Z,99.99
2022-09-09T02:54:27.536Z,99.99
2022-09-09T02:55:27.529Z,99.99
2022-09-09T02:56:27.518Z,99.99
2022-09-09T02:57:27.573Z,99.99
2022-09-09T02:58:27.474Z,99.99
2022-09-09T02:59:27.484Z,99.99
2022-09-09T03:00:27.466Z,99.99
2022-09-09T03:01:27.482Z,99.99
2022-09-09T03:02:27.480Z,99.99
2022-09-09T03:03:27.424Z,99.99
2022-09-09T03:04:27.459Z,99.99
2022-09-09T03:05:27.408Z,99.99
2022-09-09T03:06:27.377Z,99.99
2022-09-09T03:07:27.365Z,99.99
2022-09-09T03:08:27.356Z,99.99
2022-09-09T03:09:27.355Z,99.99
2022-09-09T03:10:27.345Z,99.99
2022-09-09T03:11:27.323Z,99.99
2022-09-09T03:12:27.323Z,99.99
2022-09-09T03:13:27.306Z,99.99
2022-09-09T03:14:27.300Z,99.99
2022-09-09T03:15:27.312Z,99.99
2022-09-09T03:16:27.323Z,99.99
2022-09-09T03:17:27.267Z,99.99
2022-09-09T03:18:27.255Z,99.99
2022-09-09T03:19:27.247Z,99.99
2022-09-09T03:20:27.226Z,99.99
2022-09-09T03:21:27.213Z,99.99
2022-09-09T03:22:27.212Z,99.99
2022-09-09T03:23:27.186Z,99.99
2022-09-09T03:24:27.217Z,99.99
2022-09-09T03:25:27.170Z,99.99
2022-09-09T03:26:27.160Z,99.99
2022-09-09T03:27:27.142Z,99.99
2022-09-09T03:28:27.132Z,99.99
2022-09-09T03:29:27.116Z,99.99
2022-09-09T03:30:27.144Z,99.99
2022-09-09T03:31:27.137Z,99.99
2022-09-09T03:32:27.084Z,99.99
2022-09-09T03:33:27.082Z,99.99
2022-09-09T03:34:27.074Z,99.99
2022-09-09T03:35:27.073Z,99.99
2022-09-09T03:36:27.044Z,99.99
2022-09-09T03:37:27.043Z,99.99
2022-09-09T03:38:27.061Z,99.99
2022-09-09T03:39:27.020Z,99.99
2022-09-09T03:40:27.042Z,99.99
2022-09-09T03:41:26.992Z,99.99
2022-09-09T03:42:26.979Z,99.99
2022-09-09T03:43:26.965Z,99.99
2022-09-09T03:44:26.951Z,99.99
2022-09-09T03:45:27.035Z,99.99
2022-09-09T03:46:26.954Z,99.99
2022-09-09T03:47:26.918Z,99.99
2022-09-09T03:48:26.953Z,99.99
2022-09-09T03:49:26.888Z,99.99
2022-09-09T03:50:26.894Z,99.99
2022-09-09T03:51:26.889Z,99.99
2022-09-09T03:52:26.872Z,99.99
2022-09-09T03:53:26.854Z,99.99
2022-09-09T03:54:26.870Z,99.99
2022-09-09T03:55:26.874Z,99.99
2022-09-09T03:56:26.842Z,99.99
2022-09-09T03:57:26.828Z,99.99
2022-09-09T03:58:26.812Z,99.99
2022-09-09T03:59:26.804Z,99.99
2022-09-09T04:00:26.788Z,99.99
2022-09-09T04:01:26.804Z,99.99
2022-09-09T04:02:26.821Z,99.99
2022-09-09T04:03:28.214Z,99.99
2022-09-09T04:04:26.735Z,99.99
2022-09-09T04:05:26.734Z,99.99
2022-09-09T04:06:26.709Z,99.99
2022-09-09T04:07:26.713Z,99.99
2022-09-09T04:08:26.695Z,99.99
2022-09-09T04:09:26.683Z,99.99
2022-09-09T04:10:26.684Z,99.99
2022-09-09T04:11:26.652Z,99.99
2022-09-09T04:12:26.647Z,99.99
2022-09-09T04:13:26.674Z,99.99
2022-09-09T04:14:26.650Z,99.99
2022-09-09T04:15:26.631Z,99.99
2022-09-09T04:16:26.713Z,99.99
2022-09-09T04:17:26.617Z,99.99
2022-09-09T04:18:26.619Z,99.99
2022-09-09T04:19:26.573Z,99.99
2022-09-09T04:20:26.608Z,99.99
2022-09-09T04:21:26.546Z,99.99
2022-09-09T04:22:26.527Z,99.99
2022-09-09T04:23:26.526Z,99.99
2022-09-09T04:24:26.505Z,99.99
2022-09-09T04:25:26.526Z,99.99
2022-09-09T04:26:26.506Z,99.99
2022-09-09T04:27:26.486Z,99.99
2022-09-09T04:28:26.458Z,99.99
2022-09-09T04:29:26.448Z,99.99
2022-09-09T04:30:26.457Z,99.99
2022-09-09T04:31:26.448Z,99.99
2022-09-09T04:32:26.432Z,99.99
2022-09-09T04:33:26.431Z,99.99
2022-09-09T04:34:26.401Z,99.99
2022-09-09T04:35:26.405Z,99.99
2022-09-09T04:36:26.393Z,99.99
2022-09-09T04:37:26.358Z,99.99
2022-09-09T04:38:26.349Z,99.99
2022-09-09T04:39:26.342Z,99.99
2022-09-09T04:40:26.344Z,99.99
2022-09-09T04:41:26.308Z,99.99
2022-09-09T04:42:26.310Z,99.99
2022-09-09T04:43:26.295Z,99.99
2022-09-09T04:44:26.295Z,99.99
2022-09-09T04:45:26.314Z,99.99
2022-09-09T04:46:26.268Z,99.99
2022-09-09T04:47:26.247Z,99.99
2022-09-09T04:48:26.285Z,99.99
2022-09-09T04:49:26.242Z,99.99
2022-09-09T04:50:26.227Z,99.99
2022-09-09T04:52:26.133Z,99.99
2022-09-09T04:53:27.118Z,99.99
2022-09-09T04:54:27.121Z,99.99
2022-09-09T04:55:27.119Z,99.99
2022-09-09T04:56:27.090Z,99.99
2022-09-09T04:57:27.079Z,99.99
2022-09-09T04:58:27.067Z,99.99
2022-09-09T04:59:27.061Z,99.99
2022-09-09T05:00:27.065Z,99.99
2022-09-09T05:01:27.105Z,99.99
2022-09-09T05:02:31.365Z,99.99
2022-09-09T05:03:27.015Z,99.99
2022-09-09T05:04:27.007Z,99.99
2022-09-09T05:05:27.015Z,99.99
2022-09-09T05:06:26.987Z,99.99
2022-09-09T05:07:26.971Z,99.99
2022-09-09T05:08:26.957Z,99.99
2022-09-09T05:09:26.955Z,99.99
2022-09-09T05:10:26.954Z,99.99
2022-09-09T05:11:26.950Z,99.99
2022-09-09T05:12:26.916Z,99.99
2022-09-09T05:13:26.912Z,99.99
2022-09-09T05:14:26.894Z,99.99
2022-09-09T05:15:26.901Z,99.99
2022-09-09T05:16:26.955Z,99.99
2022-09-09T05:17:26.858Z,99.99
2022-09-09T05:18:26.862Z,99.99
2022-09-09T05:19:26.842Z,99.99
2022-09-09T05:20:26.842Z,99.99
2022-09-09T05:21:26.820Z,99.99
2022-09-09T05:22:26.813Z,99.99
2022-09-09T05:23:26.885Z,99.99
2022-09-09T05:24:26.786Z,99.99
2022-09-09T05:25:26.783Z,99.99
2022-09-09T05:26:26.757Z,99.99
2022-09-09T05:27:26.747Z,99.99
2022-09-09T05:28:26.745Z,99.99
2022-09-09T05:29:26.739Z,99.99
2022-09-09T05:30:26.766Z,99.99
2022-09-09T05:31:27.234Z,99.99
2022-09-09T05:32:26.693Z,99.99
2022-09-09T05:33:26.693Z,99.99
2022-09-09T05:34:26.668Z,99.99
2022-09-09T05:35:26.685Z,99.99
2022-09-09T05:36:26.645Z,99.99
2022-09-09T05:37:26.650Z,99.99
2022-09-09T05:38:28.730Z,99.99
2022-09-09T05:39:26.617Z,99.99
2022-09-09T05:40:26.631Z,99.99
2022-09-09T05:41:26.594Z,99.99
2022-09-09T05:42:26.586Z,99.99
2022-09-09T05:43:26.574Z,99.99
2022-09-09T05:44:26.563Z,99.99
2022-09-09T05:45:26.566Z,99.99
2022-09-09T05:46:26.576Z,99.99
2022-09-09T05:47:26.526Z,99.99
2022-09-09T05:48:26.522Z,99.99
2022-09-09T05:49:26.507Z,99.99
2022-09-09T05:50:31.020Z,99.99
2022-09-09T05:51:26.491Z,99.99
2022-09-09T05:52:26.468Z,99.99
2022-09-09T05:53:26.477Z,99.99
2022-09-09T05:54:26.458Z,99.99
2022-09-09T05:55:26.452Z,99.99
2022-09-09T05:56:26.431Z,99.99
2022-09-09T05:57:26.417Z,99.99
2022-09-09T05:58:26.410Z,99.99
2022-09-09T05:59:26.393Z,99.99
2022-09-09T06:00:26.401Z,99.99
2022-09-09T06:01:26.377Z,99.99
2022-09-09T06:02:26.521Z,99.99
2022-09-09T06:03:26.354Z,99.99
2022-09-09T06:04:26.357Z,99.99
2022-09-09T06:05:26.350Z,99.99
2022-09-09T06:06:26.325Z,99.99
2022-09-09T06:07:26.311Z,99.99
2022-09-09T06:08:26.302Z,99.99
2022-09-09T06:09:26.292Z,99.99
2022-09-09T06:10:26.308Z,99.99
2022-09-09T06:11:26.262Z,99.99
2022-09-09T06:12:26.248Z,99.99
2022-09-09T06:13:26.236Z,99.99
2022-09-09T06:14:26.232Z,99.99
2022-09-09T06:15:26.239Z,99.99
2022-09-09T06:16:26.774Z,99.99
2022-09-09T06:17:26.197Z,99.99
2022-09-09T06:18:26.189Z,99.99
2022-09-09T06:19:26.172Z,99.99
2022-09-09T06:20:26.252Z,99.99
2022-09-09T06:21:26.160Z,99.99
2022-09-09T06:22:26.144Z,99.99
2022-09-09T06:23:26.131Z,99.99
2022-09-09T06:24:26.121Z,99.99
2022-09-09T06:25:26.129Z,99.99
2022-09-09T06:26:26.100Z,99.99
2022-09-09T06:27:26.093Z,99.99
2022-09-09T06:28:26.083Z,99.99
2022-09-09T06:29:26.067Z,99.99
2022-09-09T06:30:26.119Z,99.99
2022-09-09T06:31:29.829Z,99.99
2022-09-09T06:32:26.037Z,99.99
2022-09-09T06:33:26.022Z,99.99
2022-09-09T06:34:26.020Z,99.99
2022-09-09T06:35:26.018Z,99.99
2022-09-09T06:36:25.989Z,99.99
2022-09-09T06:37:25.986Z,99.99
2022-09-09T06:38:25.972Z,99.99
2022-09-09T06:39:25.954Z,99.99
2022-09-09T06:40:25.960Z,99.99
2022-09-09T06:41:25.937Z,99.99
2022-09-09T06:42:25.925Z,99.99
2022-09-09T06:43:25.918Z,99.99
2022-09-09T06:44:25.928Z,99.99
2022-09-09T06:45:25.913Z,99.99
2022-09-09T06:46:25.933Z,99.99
2022-09-09T06:47:25.889Z,99.99
2022-09-09T06:48:25.861Z,99.99
2022-09-09T06:49:25.846Z,99.99
2022-09-09T06:50:25.882Z,99.99
2022-09-09T06:51:25.822Z,99.99
2022-09-09T06:52:25.821Z,99.99
2022-09-09T06:53:25.865Z,99.99
2022-09-09T06:54:25.795Z,99.99
2022-09-09T06:55:25.805Z,99.99
2022-09-09T06:56:25.788Z,99.99
2022-09-09T06:57:41.075Z,99.99
2022-09-09T06:58:25.762Z,99.99
2022-09-09T06:59:25.738Z,99.99
2022-09-09T07:00:25.807Z,99.99
2022-09-09T07:01:25.720Z,99.99
2022-09-09T07:02:25.805Z,99.99
2022-09-09T07:03:25.700Z,99.99
2022-09-09T07:04:25.687Z,99.99
2022-09-09T07:05:25.684Z,99.99
2022-09-09T07:06:25.676Z,99.99
2022-09-09T07:07:25.665Z,99.99
2022-09-09T07:08:25.654Z,99.99
2022-09-09T07:09:25.638Z,99.99
2022-09-09T07:10:25.647Z,99.99
2022-09-09T07:11:25.608Z,99.99
2022-09-09T07:12:25.600Z,99.99
2022-09-09T07:13:25.592Z,99.99
2022-09-09T07:14:25.587Z,99.99
2022-09-09T07:15:25.592Z,99.99
2022-09-09T07:16:25.694Z,99.99
2022-09-09T07:17:25.546Z,99.99
2022-09-09T07:18:25.541Z,99.99
2022-09-09T07:19:25.521Z,99.99
2022-09-09T07:20:25.536Z,99.99
2022-09-09T07:21:25.498Z,99.99
2022-09-09T07:22:25.495Z,99.99
2022-09-09T07:23:25.483Z,99.99
2022-09-09T07:24:25.480Z,99.99
2022-09-09T07:25:25.475Z,99.99
2022-09-09T07:26:25.453Z,99.99
2022-09-09T07:27:25.435Z,99.99
2022-09-09T07:28:25.434Z,99.99
2022-09-09T07:29:25.418Z,99.99
2022-09-09T07:30:27.711Z,99.99
2022-09-09T07:31:25.438Z,99.99
2022-09-09T07:32:25.381Z,99.99
2022-09-09T07:33:25.374Z,99.99
2022-09-09T07:34:25.367Z,99.99
2022-09-09T07:35:25.381Z,99.99
2022-09-09T07:36:27.943Z,99.99
2022-09-09T07:37:25.330Z,99.99
2022-09-09T07:38:25.317Z,99.99
2022-09-09T07:39:25.300Z,99.99
2022-09-09T07:40:25.360Z,99.99
2022-09-09T07:41:25.285Z,99.99
2022-09-09T07:42:25.275Z,99.98
2022-09-09T07:43:25.255Z,99.99
2022-09-09T07:44:25.265Z,99.98
2022-09-09T07:45:25.237Z,99.99
2022-09-09T07:46:25.312Z,99.99
2022-09-09T07:47:25.216Z,99.99
2022-09-09T07:48:25.211Z,99.99
2022-09-09T07:49:30.952Z,99.99
2022-09-09T07:50:25.194Z,99.99
2022-09-09T07:51:25.181Z,99.99
2022-09-09T07:52:25.180Z,99.99
2022-09-09T07:53:25.137Z,99.99
2022-09-09T07:54:25.129Z,99.99
2022-09-09T07:55:25.140Z,99.99
2022-09-09T07:56:25.116Z,99.99
2022-09-09T07:57:25.096Z,99.42
2022-09-09T07:58:25.094Z,99.52
2022-09-09T07:59:25.079Z,99.52
2022-09-09T08:00:25.072Z,99.73
2022-09-09T08:01:25.091Z,99.73
2022-09-09T08:02:25.040Z,99.73
2022-09-09T08:03:25.055Z,99.68
2022-09-09T08:04:25.022Z,99.68
2022-09-09T08:05:25.007Z,99.68
2022-09-09T08:06:24.997Z,99.78
2022-09-09T08:07:25.012Z,99.07
2022-09-09T08:08:24.980Z,98.57
2022-09-09T08:09:24.966Z,98.77
2022-09-09T08:10:24.958Z,99.07
2022-09-09T08:11:24.938Z,99.13
2022-09-09T08:12:24.939Z,99.33
2022-09-09T08:13:24.929Z,99.22
2022-09-09T08:14:24.912Z,99.13
2022-09-09T08:15:24.901Z,99.33
2022-09-09T08:16:24.893Z,99.33
2022-09-09T08:17:24.866Z,99.33
2022-09-09T08:18:24.881Z,99.02
2022-09-09T08:19:24.878Z,98.72
2022-09-09T08:20:24.856Z,98.82
2022-09-09T08:21:24.835Z,98.68
2022-09-09T08:22:24.822Z,98.68
2022-09-09T08:23:24.806Z,98.37
2022-09-09T08:24:24.806Z,98.22
2022-09-09T08:25:24.816Z,98.11
2022-09-09T08:26:24.799Z,98.17
2022-09-09T08:27:24.774Z,98.37
2022-09-09T08:28:24.752Z,98.58
2022-09-09T08:29:24.754Z,98.58
2022-09-09T08:30:24.736Z,98.58
2022-09-09T08:32:24.710Z,98.22
2022-09-09T08:33:24.698Z,98.13
2022-09-09T08:34:24.701Z,98.22
2022-09-09T08:35:24.674Z,98.13
2022-09-09T08:36:24.674Z,98.02
2022-09-09T08:37:24.668Z,97.72
2022-09-09T08:38:24.650Z,97.88
2022-09-09T08:39:24.629Z,97.78
2022-09-09T08:40:24.628Z,97.27
2022-09-09T08:41:24.613Z,97.07
2022-09-09T08:42:24.648Z,97.13
2022-09-09T08:43:24.592Z,97.23
2022-09-09T08:44:24.584Z,97.13
2022-09-09T08:45:24.566Z,96.72
2022-09-09T08:46:24.607Z,94.40
2022-09-09T08:47:24.554Z,95.51
2022-09-09T08:48:24.568Z,95.81
2022-09-09T08:49:24.521Z,95.21
2022-09-09T08:50:24.533Z,95.37
2022-09-09T08:51:24.504Z,95.87
2022-09-09T08:52:24.498Z,96.28
2022-09-09T08:53:24.482Z,95.83
2022-09-09T08:54:48.522Z,95.73
2022-09-09T08:55:24.470Z,96.03
2022-09-09T08:56:24.455Z,96.28
2022-09-09T08:57:24.447Z,96.39
2022-09-09T08:58:24.433Z,92.96
2022-09-09T08:59:24.433Z,93.27
2022-09-09T09:00:24.430Z,93.57
2022-09-09T09:01:24.480Z,94.17
2022-09-09T09:02:24.388Z,94.73
2022-09-09T09:03:24.377Z,94.83
2022-09-09T09:04:25.874Z,95.03
2022-09-09T09:05:24.354Z,93.12
2022-09-09T09:06:24.358Z,93.22
2022-09-09T09:07:24.334Z,93.52
2022-09-09T09:08:24.325Z,93.93
2022-09-09T09:09:24.309Z,94.13
2022-09-09T09:10:41.209Z,94.68
2022-09-09T09:11:24.296Z,94.79
2022-09-09T09:12:24.360Z,94.79
2022-09-09T09:13:24.267Z,94.08
2022-09-09T09:14:24.417Z,94.28
2022-09-09T09:15:24.239Z,94.59
2022-09-09T09:16:24.253Z,94.59
2022-09-09T09:17:24.237Z,94.59
2022-09-09T09:18:24.217Z,94.59
2022-09-09T09:19:24.197Z,94.79
2022-09-09T09:20:24.189Z,92.17
2022-09-09T09:21:24.172Z,91.47
2022-09-09T09:22:24.208Z,90.50
2022-09-09T09:23:24.154Z,90.70
2022-09-09T09:24:24.143Z,91.51
2022-09-09T09:25:24.138Z,92.72
2022-09-09T09:26:24.128Z,93.12
2022-09-09T09:27:24.134Z,93.22
2022-09-09T09:28:24.122Z,93.62
2022-09-09T09:29:24.094Z,94.02
2022-09-09T09:30:30.072Z,94.23
2022-09-09T09:31:24.127Z,94.38
2022-09-09T09:32:24.132Z,94.48
2022-09-09T09:33:24.059Z,94.59
2022-09-09T09:34:24.038Z,94.08
2022-09-09T09:35:24.022Z,94.28
2022-09-09T09:36:24.013Z,93.88
2022-09-09T09:37:24.013Z,85.78
2022-09-09T09:40:23.974Z,93.08
2022-09-09T09:41:23.976Z,89.20
2022-09-09T09:42:24.100Z,91.77
2022-09-09T09:43:23.936Z,93.28
2022-09-09T09:44:23.952Z,93.28
2022-09-09T09:45:23.931Z,91.77
2022-09-09T09:46:23.962Z,91.67
2022-09-09T09:47:23.905Z,92.17
2022-09-09T09:48:23.913Z,92.73
2022-09-09T09:49:24.119Z,92.77
2022-09-09T09:50:23.871Z,90.46
2022-09-09T09:51:23.861Z,92.37
2022-09-09T09:52:23.842Z,91.37
2022-09-09T09:53:23.832Z,91.83
2022-09-09T09:54:23.851Z,92.13
2022-09-09T09:55:23.816Z,92.83
2022-09-09T09:56:23.794Z,93.23
2022-09-09T09:57:23.847Z,93.13
2022-09-09T09:58:23.826Z,92.63
2022-09-09T09:59:38.687Z,91.72
2022-09-09T10:00:23.768Z,91.83
2022-09-09T10:01:23.760Z,93.03
2022-09-09T10:02:23.735Z,92.83
2022-09-09T10:03:23.739Z,93.03
2022-09-09T10:04:23.739Z,93.33
2022-09-09T10:05:27.190Z,93.23
2022-09-09T10:06:23.691Z,91.32
2022-09-09T10:07:23.679Z,89.51
2022-09-09T10:08:23.681Z,90.72
2022-09-09T10:09:23.677Z,91.83
2022-09-09T10:10:23.662Z,91.02
2022-09-09T10:11:23.640Z,91.42
2022-09-09T10:12:23.616Z,91.58
2022-09-09T10:13:23.627Z,91.88
2022-09-09T10:14:23.604Z,91.64
2022-09-09T10:15:23.598Z,90.33
2022-09-09T10:16:23.647Z,89.13
2022-09-09T10:17:23.570Z,89.63
2022-09-09T10:18:23.561Z,90.33
2022-09-09T10:19:23.548Z,90.33
2022-09-09T10:20:23.549Z,91.03
2022-09-09T10:21:23.551Z,91.64
2022-09-09T10:22:23.541Z,91.80
2022-09-09T10:23:23.503Z,88.32
2022-09-09T10:24:23.518Z,86.32
2022-09-09T10:25:23.479Z,83.91
2022-09-09T10:26:23.501Z,86.48
2022-09-09T10:27:23.477Z,86.54
2022-09-09T10:28:23.452Z,86.60
2022-09-09T10:29:23.445Z,88.30
2022-09-09T10:30:23.433Z,88.90
2022-09-09T10:31:23.473Z,84.99
2022-09-09T10:32:23.428Z,87.90
2022-09-09T10:33:23.404Z,84.79
2022-09-09T10:34:23.383Z,87.60
2022-09-09T10:35:23.367Z,88.60
2022-09-09T10:36:23.367Z,85.89
2022-09-09T10:37:23.357Z,87.70
2022-09-09T10:38:23.362Z,89.76
2022-09-09T10:39:23.332Z,89.66
2022-09-09T10:40:23.352Z,86.30
2022-09-09T10:41:23.302Z,85.89
2022-09-09T10:42:23.320Z,87.30
2022-09-09T10:43:23.298Z,88.96
2022-09-09T10:44:23.294Z,89.56
2022-09-09T10:45:23.308Z,87.00
2022-09-09T10:46:23.293Z,88.36
2022-09-09T10:47:27.921Z,88.16
2022-09-09T10:48:23.246Z,88.46
2022-09-09T10:49:23.457Z,89.02
2022-09-09T10:50:25.851Z,89.42
2022-09-09T10:51:23.196Z,85.46
2022-09-09T10:52:29.760Z,85.25
2022-09-09T10:53:23.179Z,87.66
2022-09-09T10:54:23.169Z,87.26
2022-09-09T10:55:27.967Z,83.75
2022-09-09T10:56:23.152Z,86.46
2022-09-09T10:57:23.147Z,86.69
2022-09-09T10:58:23.134Z,88.60
2022-09-09T10:59:23.121Z,90.20
2022-09-09T11:00:23.122Z,90.41
2022-09-09T11:01:23.136Z,88.80
2022-09-09T11:02:23.111Z,89.30
2022-09-09T11:03:23.105Z,90.00
2022-09-09T11:04:23.132Z,89.81
2022-09-09T11:05:23.065Z,90.61
2022-09-09T11:06:23.090Z,90.41
2022-09-09T11:07:23.028Z,90.66
2022-09-09T11:09:23.008Z,88.76
2022-09-09T11:10:23.017Z,86.16
2022-09-09T11:11:22.990Z,88.86
2022-09-09T11:12:22.983Z,89.46
2022-09-09T11:13:22.981Z,86.85
2022-09-09T11:14:22.956Z,88.06
2022-09-09T11:15:22.948Z,88.46
2022-09-09T11:16:22.993Z,86.55
2022-09-09T11:17:22.921Z,88.16
2022-09-09T11:18:22.913Z,89.36
2022-09-09T11:19:22.924Z,89.26
2022-09-09T11:20:22.938Z,89.76
2022-09-09T11:21:22.880Z,88.36
2022-09-09T11:22:22.926Z,85.96
2022-09-09T11:23:22.861Z,85.89
2022-09-09T11:24:22.909Z,87.36
2022-09-09T11:25:22.855Z,85.55
2022-09-09T11:26:22.827Z,88.66
2022-09-09T11:27:22.829Z,84.85
2022-09-09T11:28:22.847Z,86.85
2022-09-09T11:29:22.859Z,89.22
2022-09-09T11:30:51.182Z,85.61
2022-09-09T11:31:22.851Z,85.82
2022-09-09T11:32:22.895Z,87.32
2022-09-09T11:33:22.754Z,88.42
2022-09-09T11:34:22.739Z,89.02
2022-09-09T11:35:22.769Z,87.12
2022-09-09T11:36:22.716Z,86.41
2022-09-09T11:37:22.712Z,82.01
2022-09-09T11:38:22.720Z,85.17
2022-09-09T11:39:22.677Z,86.93
2022-09-09T11:40:22.678Z,87.03
2022-09-09T11:41:22.668Z,87.29
2022-09-09T11:42:22.651Z,87.65
2022-09-09T11:43:22.636Z,87.65
2022-09-09T11:44:22.647Z,86.75
2022-09-09T11:45:22.614Z,82.99
2022-09-09T11:46:22.638Z,85.99
2022-09-09T11:47:22.596Z,87.09
2022-09-09T11:48:22.586Z,86.79
2022-09-09T11:49:22.633Z,86.69
2022-09-09T11:50:22.571Z,86.79
2022-09-09T11:51:22.556Z,85.85
2022-09-09T11:52:22.546Z,85.01
2022-09-09T11:53:22.529Z,79.72
2022-09-09T11:54:22.529Z,80.41
2022-09-09T11:55:22.536Z,82.51
2022-09-09T11:56:22.507Z,84.31
2022-09-09T11:57:22.484Z,84.57
2022-09-09T11:58:22.475Z,84.01
2022-09-09T11:59:22.463Z,79.22
2022-09-09T12:00:22.474Z,79.85
2022-09-09T12:01:22.444Z,79.55
2022-09-09T12:02:22.486Z,83.95
2022-09-09T12:03:22.432Z,83.35
2022-09-09T12:04:22.528Z,79.61
2022-09-09T12:05:22.469Z,79.32
2022-09-09T12:06:22.400Z,80.77
2022-09-09T12:07:22.382Z,83.83
2022-09-09T12:08:22.366Z,76.25
2022-09-09T12:09:22.374Z,75.95
2022-09-09T12:10:22.392Z,80.94
2022-09-09T12:11:22.366Z,82.73
2022-09-09T12:12:22.348Z,83.73
2022-09-09T12:13:22.314Z,78.54
2022-09-09T12:14:22.315Z,80.94
2022-09-09T12:15:22.310Z,83.33
2022-09-09T12:16:22.338Z,83.83
2022-09-09T12:17:22.302Z,80.83
2022-09-09T12:18:22.263Z,81.34
2022-09-09T12:19:24.836Z,82.83
2022-09-09T12:20:22.253Z,78.64
2022-09-09T12:21:22.262Z,74.98
2022-09-09T12:22:22.215Z,78.78
2022-09-09T12:23:22.213Z,80.77
2022-09-09T12:24:22.209Z,81.43
2022-09-09T12:25:23.408Z,81.93
2022-09-09T12:26:22.213Z,82.83
2022-09-09T12:27:22.166Z,82.64
2022-09-09T12:28:22.156Z,80.27
2022-09-09T12:29:22.156Z,81.87
2022-09-09T12:30:22.139Z,82.51
2022-09-09T12:31:22.142Z,80.51
2022-09-09T12:32:22.128Z,82.11
2022-09-09T12:33:22.097Z,77.75
2022-09-09T12:34:22.105Z,81.35
2022-09-09T12:35:22.085Z,83.75
2022-09-09T12:36:22.065Z,81.89
2022-09-09T12:37:22.083Z,82.69
2022-09-09T12:38:22.055Z,82.33
2022-09-09T12:39:22.048Z,83.93
2022-09-09T12:40:22.055Z,82.23
2022-09-09T12:41:22.017Z,81.97
2022-09-09T12:42:22.039Z,82.47
2022-09-09T12:43:21.988Z,84.57
2022-09-09T12:44:21.988Z,85.91
2022-09-09T12:45:21.965Z,87.02
2022-09-09T12:46:21.984Z,86.71
2022-09-09T12:47:21.957Z,86.71
2022-09-09T12:48:21.983Z,87.32
2022-09-09T12:49:21.935Z,87.41
2022-09-09T12:50:21.936Z,87.36
2022-09-09T12:51:21.912Z,87.16
2022-09-09T12:52:21.898Z,87.96
2022-09-09T12:53:25.670Z,82.89
2022-09-09T12:54:21.873Z,84.09
2022-09-09T12:55:21.909Z,86.60
2022-09-09T12:56:21.876Z,87.10
2022-09-09T12:57:21.878Z,87.30